createdAt,value
2023-04-04T00:02:40.817Z,101348.09
2023-04-04T00:07:47.551Z,101351.63
2023-04-04T00:12:51.151Z,101342.97
2023-04-04T00:17:54.101Z,101356.13
2023-04-04T00:22:58.092Z,101364.16
2023-04-04T00:28:01.926Z,101345.16
2023-04-04T00:33:05.086Z,101377.16
2023-04-04T00:38:08.438Z,101371.91
2023-04-04T00:43:11.879Z,101361.56
2023-04-04T00:48:18.083Z,101371.31
2023-04-04T00:53:21.178Z,101377.50
2023-04-04T00:58:26.574Z,101367.31
2023-04-04T01:03:29.938Z,101368.22
2023-04-04T01:08:34.440Z,101372.72
2023-04-04T01:13:37.581Z,101372.81
2023-04-04T01:18:42.847Z,101369.59
2023-04-04T01:24:03.347Z,101389.75
2023-04-04T01:29:19.234Z,101354.94
2023-04-04T01:35:08.001Z,101380.44
2023-04-04T01:40:27.519Z,101356.94
2023-04-04T01:45:31.523Z,101369.13
2023-04-04T01:50:35.677Z,101369.28
2023-04-04T01:55:38.825Z,101381.47
2023-04-04T02:00:42.485Z,101378.22
2023-04-04T02:05:46.758Z,101374.81
2023-04-04T02:10:49.657Z,101361.00
2023-04-04T02:15:52.779Z,101389.03
2023-04-04T02:20:57.832Z,101378.63
2023-04-04T02:26:00.972Z,101370.88
2023-04-04T02:31:04.128Z,101383.16
2023-04-04T02:36:07.222Z,101406.72
2023-04-04T02:41:10.269Z,101382.16
2023-04-04T02:46:21.095Z,101401.34
2023-04-04T02:51:25.939Z,101389.22
2023-04-04T02:56:29.291Z,101409.94
2023-04-04T03:01:32.831Z,101401.13
2023-04-04T03:06:39.879Z,101417.16
2023-04-04T03:11:43.206Z,101403.63
2023-04-04T03:16:46.721Z,101399.97
2023-04-04T03:21:49.753Z,101420.34
2023-04-04T03:26:52.776Z,101420.63
2023-04-04T03:31:56.073Z,101404.50
2023-04-04T03:36:59.414Z,101425.69
2023-04-04T03:42:02.463Z,101425.28
2023-04-04T03:47:05.539Z,101428.78
2023-04-04T03:52:13.330Z,101420.13
2023-04-04T03:57:16.361Z,101422.56
2023-04-04T04:02:19.481Z,101419.47
2023-04-04T04:07:22.635Z,101427.78
2023-04-04T04:12:26.567Z,101441.66
2023-04-04T04:17:29.592Z,101419.66
2023-04-04T04:22:33.233Z,101410.94
2023-04-04T04:27:37.332Z,101430.53
2023-04-04T04:32:40.491Z,101431.03
2023-04-04T04:37:44.296Z,101431.72
2023-04-04T04:42:47.823Z,101435.75
2023-04-04T04:47:55.253Z,101428.81
2023-04-04T04:52:58.377Z,101432.28
2023-04-04T04:58:01.697Z,101442.09
2023-04-04T05:03:07.349Z,101435.53
2023-04-04T05:08:19.107Z,101422.31
2023-04-04T05:13:32.436Z,101438.38
2023-04-04T05:18:37.109Z,101439.03
2023-04-04T05:23:45.579Z,101436.28
2023-04-04T05:28:50.756Z,101435.75
2023-04-04T05:33:56.656Z,101421.41
2023-04-04T05:39:07.520Z,101438.00
2023-04-04T05:44:16.557Z,101439.94
2023-04-04T05:49:19.575Z,101437.97
2023-04-04T05:54:30.795Z,101440.28
2023-04-04T05:59:37.330Z,101440.47
2023-04-04T06:04:42.217Z,101444.00
2023-04-04T06:09:47.220Z,101427.44
2023-04-04T06:14:50.276Z,101445.06
2023-04-04T06:19:57.212Z,101433.16
2023-04-04T06:25:00.240Z,101430.19
2023-04-04T06:30:06.396Z,101428.72
2023-04-04T06:35:10.717Z,101435.81
2023-04-04T06:40:31.383Z,101434.53
2023-04-04T06:45:36.224Z,101441.91
2023-04-04T06:50:39.609Z,101432.91
2023-04-04T06:55:47.018Z,101442.72
2023-04-04T07:00:50.228Z,101445.56
2023-04-04T07:05:53.315Z,101438.50
2023-04-04T07:10:56.376Z,101443.88
2023-04-04T07:15:59.465Z,101426.66
2023-04-04T07:21:02.510Z,101420.53
2023-04-04T07:26:05.606Z,101425.28
2023-04-04T07:31:08.644Z,101433.34
2023-04-04T07:36:11.689Z,101425.03
2023-04-04T07:41:14.687Z,101432.69
2023-04-04T07:46:18.263Z,101436.22
2023-04-04T07:51:31.249Z,101433.19
2023-04-04T07:56:34.251Z,101425.44
2023-04-04T08:01:37.596Z,101414.81
2023-04-04T08:06:40.583Z,101425.25
2023-04-04T08:11:44.091Z,101414.38
2023-04-04T08:16:47.086Z,101406.09
2023-04-04T08:21:51.900Z,101419.72
2023-04-04T08:27:04.501Z,101403.75
2023-04-04T08:32:08.662Z,101408.03
2023-04-04T08:37:11.788Z,101406.25
2023-04-04T08:42:17.909Z,101392.38
2023-04-04T08:47:23.863Z,101391.94
2023-04-04T08:52:29.041Z,101395.34
2023-04-04T08:57:32.246Z,101398.38
2023-04-04T09:02:44.757Z,101393.00
2023-04-04T09:07:48.409Z,101386.34
2023-04-04T09:12:53.724Z,101371.31
2023-04-04T09:17:58.551Z,101383.63
2023-04-04T09:23:02.335Z,101355.44
2023-04-04T09:28:06.237Z,101394.38
2023-04-04T09:33:11.723Z,101394.06
2023-04-04T09:38:20.114Z,101392.94
2023-04-04T09:43:25.821Z,101383.84
2023-04-04T09:48:34.290Z,101393.88
2023-04-04T09:53:42.435Z,101372.78
2023-04-04T09:59:02.670Z,101381.16
2023-04-04T10:04:09.316Z,101361.59
2023-04-04T10:09:12.391Z,101376.75
2023-04-04T10:14:15.922Z,101372.78
2023-04-04T10:19:19.943Z,101364.66
2023-04-04T10:24:22.942Z,101377.44
2023-04-04T10:29:26.314Z,101388.78
2023-04-04T10:34:35.993Z,101364.00
2023-04-04T10:39:54.271Z,101379.56
2023-04-04T10:45:09.152Z,101358.41
2023-04-04T10:50:21.188Z,101354.66
2023-04-04T10:55:24.847Z,101354.19
2023-04-04T11:00:27.939Z,101351.75
2023-04-04T11:05:42.721Z,101344.13
2023-04-04T11:10:49.227Z,101352.19
2023-04-04T11:16:00.694Z,101347.97
2023-04-04T11:21:05.873Z,101355.44
2023-04-04T11:26:09.349Z,101364.22
2023-04-04T11:31:16.152Z,101354.75
2023-04-04T11:36:45.891Z,101356.34
2023-04-04T11:42:16.390Z,101355.47
2023-04-04T11:47:20.771Z,101309.56
2023-04-04T11:52:26.762Z,101341.09
2023-04-04T11:57:29.772Z,101326.47
2023-04-04T12:02:35.196Z,101338.19
2023-04-04T12:07:38.221Z,101343.13
2023-04-04T12:12:42.566Z,101332.19
2023-04-04T12:17:46.743Z,101337.34
2023-04-04T12:22:51.414Z,101343.84
2023-04-04T12:27:55.824Z,101322.31
2023-04-04T12:32:59.336Z,101333.81
2023-04-04T12:38:03.808Z,101341.28
2023-04-04T12:43:10.019Z,101304.25
2023-04-04T12:48:15.470Z,101344.91
2023-04-04T12:58:29.880Z,101340.09
2023-04-04T13:03:35.122Z,101321.75
2023-04-04T13:08:38.289Z,101335.13
2023-04-04T13:13:44.323Z,101323.66
2023-04-04T13:18:48.650Z,101335.47
2023-04-04T13:23:51.690Z,101323.56
2023-04-04T13:28:54.766Z,101334.19
2023-04-04T13:33:57.708Z,101341.75
2023-04-04T13:39:00.925Z,101332.56
2023-04-04T13:44:03.976Z,101337.22
2023-04-04T13:49:06.966Z,101336.59
2023-04-04T13:54:10.001Z,101318.53
2023-04-04T13:59:13.222Z,101328.00
2023-04-04T14:04:23.484Z,101332.06
2023-04-04T14:09:27.072Z,101333.31
2023-04-04T14:14:30.046Z,101301.91
2023-04-04T14:19:33.144Z,101328.81
2023-04-04T14:24:36.233Z,101316.59
2023-04-04T14:29:39.245Z,101328.16
2023-04-04T14:34:42.192Z,101282.78
2023-04-04T14:39:45.607Z,101315.53
2023-04-04T14:44:48.536Z,101329.31
2023-04-04T14:49:51.551Z,101323.88
2023-04-04T14:54:54.753Z,101322.75
2023-04-04T14:59:57.747Z,101321.88
2023-04-04T15:05:00.886Z,101325.13
2023-04-04T15:10:04.046Z,101294.94
2023-04-04T15:15:07.580Z,101331.13
2023-04-04T15:20:11.274Z,101335.47
2023-04-04T15:25:14.242Z,101333.56
2023-04-04T15:30:17.273Z,101320.31
2023-04-04T15:35:21.269Z,101325.56
2023-04-04T15:40:24.266Z,101320.34
2023-04-04T15:45:27.721Z,101325.63
2023-04-04T15:50:30.789Z,101326.53
2023-04-04T15:55:33.789Z,101323.06
2023-04-04T16:00:36.976Z,101331.50
2023-04-04T16:05:39.967Z,101340.84
2023-04-04T16:10:44.463Z,101334.69
2023-04-04T16:15:47.497Z,101337.00
2023-04-04T16:20:50.503Z,101344.34
2023-04-04T16:25:55.315Z,101364.84
2023-04-04T16:30:59.732Z,101348.91
2023-04-04T16:36:02.699Z,101341.31
2023-04-04T16:41:05.728Z,101362.69
2023-04-04T16:46:08.796Z,101363.16
2023-04-04T16:51:12.514Z,101353.06
2023-04-04T16:56:15.580Z,101375.91
2023-04-04T17:01:23.092Z,101376.56
2023-04-04T17:06:26.160Z,101374.31
2023-04-04T17:11:29.167Z,101377.34
2023-04-04T17:16:32.127Z,101366.44
2023-04-04T17:21:35.387Z,101384.38
2023-04-04T17:26:38.394Z,101377.75
2023-04-04T17:31:41.611Z,101382.53
2023-04-04T17:36:44.653Z,101361.75
2023-04-04T17:41:50.737Z,101370.53
2023-04-04T17:46:55.560Z,101365.03
2023-04-04T17:51:58.635Z,101383.53
2023-04-04T17:57:03.685Z,101369.06
2023-04-04T18:02:06.821Z,101364.06
2023-04-04T18:07:11.460Z,101358.47
2023-04-04T18:12:16.439Z,101373.28
2023-04-04T18:17:19.413Z,101363.84
2023-04-04T18:22:25.285Z,101378.97
2023-04-04T18:27:28.216Z,101364.56
2023-04-04T18:32:31.514Z,101373.44
2023-04-04T18:37:34.731Z,101386.00
2023-04-04T18:42:37.871Z,101373.53
2023-04-04T18:47:41.122Z,101371.94
2023-04-04T18:52:44.134Z,101372.13
2023-04-04T18:57:49.448Z,101372.78
2023-04-04T19:02:52.523Z,101369.25
2023-04-04T19:07:56.547Z,101356.25
2023-04-04T19:12:59.530Z,101368.69
2023-04-04T19:18:02.850Z,101347.31
2023-04-04T19:23:05.851Z,101366.66
2023-04-04T19:28:09.158Z,101362.91
2023-04-04T19:33:13.411Z,101368.97
2023-04-04T19:38:22.299Z,101375.91
2023-04-04T19:43:26.102Z,101374.34
2023-04-04T19:48:49.337Z,101369.78
2023-04-04T19:53:57.195Z,101353.63
2023-04-04T19:59:06.772Z,101361.09
2023-04-04T20:04:11.456Z,101369.75
2023-04-04T20:09:34.888Z,101371.75
2023-04-04T20:14:39.105Z,101342.50
2023-04-04T20:19:42.059Z,101348.81
2023-04-04T20:24:47.343Z,101348.84
2023-04-04T20:29:53.593Z,101360.16
2023-04-04T20:34:56.670Z,101358.66
2023-04-04T20:40:09.593Z,101350.91
2023-04-04T20:45:37.746Z,101372.13
2023-04-04T20:50:45.436Z,101359.84
2023-04-04T20:55:48.826Z,101346.97
2023-04-04T21:00:51.997Z,101353.34
2023-04-04T21:05:59.173Z,101351.31
2023-04-04T21:11:02.782Z,101364.50
2023-04-04T21:16:10.881Z,101338.38
2023-04-04T21:21:19.269Z,101344.53
2023-04-04T21:26:28.853Z,101356.81
2023-04-04T21:31:37.744Z,101331.78
2023-04-04T21:36:41.735Z,101346.59
2023-04-04T21:41:45.280Z,101324.97
2023-04-04T21:46:48.434Z,101311.69
2023-04-04T21:51:51.939Z,101311.75
2023-04-04T21:56:55.251Z,101326.72
2023-04-04T22:01:58.201Z,101321.63
2023-04-04T22:07:01.287Z,101318.16
2023-04-04T22:12:04.447Z,101297.50
2023-04-04T22:17:07.332Z,101287.03
2023-04-04T22:22:10.767Z,101308.94
2023-04-04T22:27:15.045Z,101313.38
2023-04-04T22:32:18.019Z,101287.41
2023-04-04T22:37:21.993Z,101300.59
2023-04-04T22:42:25.239Z,101281.34
2023-04-04T22:47:28.254Z,101295.41
2023-04-04T22:52:32.261Z,101286.59
2023-04-04T22:57:35.229Z,101288.38
2023-04-04T23:02:39.345Z,101292.88
2023-04-04T23:07:43.042Z,101281.00
2023-04-04T23:12:47.210Z,101277.69
2023-04-04T23:18:27.164Z,101271.72
2023-04-04T23:23:48.433Z,101284.00
2023-04-04T23:28:51.451Z,101278.84
2023-04-04T23:33:55.142Z,101272.13
2023-04-04T23:38:58.125Z,101274.59
2023-04-04T23:44:01.358Z,101276.59
2023-04-04T23:49:41.578Z,101241.00
2023-04-04T23:55:04.015Z,101262.78
